sensor_id;sensor_type;location;lat;lon;timestamp;pressure;altitude;pressure_sealevel;temperature;humidity
10796;BME280;5450;42.994;23.372;2022-11-20T00:01:34;95486.97;;;9.64;100.00
10796;BME280;5450;42.994;23.372;2022-11-20T00:04:01;95528.84;;;10.01;100.00
10796;BME280;5450;42.994;23.372;2022-11-20T00:06:29;95587.78;;;10.63;100.00
10796;BME280;5450;42.994;23.372;2022-11-20T00:08:57;95592.69;;;10.66;100.00
10796;BME280;5450;42.994;23.372;2022-11-20T00:11:28;95594.34;;;10.89;100.00
10796;BME280;5450;42.994;23.372;2022-11-20T00:13:59;95584.22;;;11.07;100.00
10796;BME280;5450;42.994;23.372;2022-11-20T00:16:31;95565.50;;;10.95;100.00
10796;BME280;5450;42.994;23.372;2022-11-20T00:19:00;95497.44;;;10.79;100.00
10796;BME280;5450;42.994;23.372;2022-11-20T00:21:28;95504.56;;;11.06;100.00
10796;BME280;5450;42.994;23.372;2022-11-20T00:23:56;95508.16;;;11.54;100.00
10796;BME280;5450;42.994;23.372;2022-11-20T00:26:25;95514.63;;;11.79;100.00
10796;BME280;5450;42.994;23.372;2022-11-20T00:28:55;95573.53;;;12.60;100.00
10796;BME280;5450;42.994;23.372;2022-11-20T00:31:24;95475.84;;;12.74;100.00
10796;BME280;5450;42.994;23.372;2022-11-20T00:33:51;95456.41;;;12.75;100.00
10796;BME280;5450;42.994;23.372;2022-11-20T00:36:20;95586.13;;;13.71;100.00
10796;BME280;5450;42.994;23.372;2022-11-20T00:38:51;95455.19;;;13.04;100.00
10796;BME280;5450;42.994;23.372;2022-11-20T00:41:20;95584.06;;;14.12;100.00
10796;BME280;5450;42.994;23.372;2022-11-20T00:43:48;95570.63;;;14.07;100.00
10796;BME280;5450;42.994;23.372;2022-11-20T00:46:17;95547.75;;;14.52;100.00
10796;BME280;5450;42.994;23.372;2022-11-20T00:48:45;95584.00;;;14.89;100.00
10796;BME280;5450;42.994;23.372;2022-11-20T00:51:14;95447.41;;;14.32;100.00
10796;BME280;5450;42.994;23.372;2022-11-20T00:53:41;95568.31;;;15.25;100.00
10796;BME280;5450;42.994;23.372;2022-11-20T00:56:11;95579.63;;;15.39;100.00
10796;BME280;5450;42.994;23.372;2022-11-20T00:58:39;95516.63;;;15.23;100.00
10796;BME280;5450;42.994;23.372;2022-11-20T01:01:08;95575.34;;;15.69;100.00
10796;BME280;5450;42.994;23.372;2022-11-20T01:03:39;95448.88;;;14.90;100.00
10796;BME280;5450;42.994;23.372;2022-11-20T01:06:09;95574.47;;;15.75;100.00
10796;BME280;5450;42.994;23.372;2022-11-20T01:08:37;95587.28;;;15.78;100.00
10796;BME280;5450;42.994;23.372;2022-11-20T01:11:06;95584.38;;;15.86;100.00
10796;BME280;5450;42.994;23.372;2022-11-20T01:13:34;95517.72;;;15.64;100.00
10796;BME280;5450;42.994;23.372;2022-11-20T01:16:05;95568.94;;;16.01;100.00
10796;BME280;5450;42.994;23.372;2022-11-20T01:18:33;95580.28;;;16.08;100.00
10796;BME280;5450;42.994;23.372;2022-11-20T01:21:03;95601.06;;;16.11;100.00
10796;BME280;5450;42.994;23.372;2022-11-20T01:23:32;95568.13;;;16.01;100.00
10796;BME280;5450;42.994;23.372;2022-11-20T01:26:00;95540.38;;;16.03;100.00
10796;BME280;5450;42.994;23.372;2022-11-20T01:28:29;95571.41;;;16.39;100.00
10796;BME280;5450;42.994;23.372;2022-11-20T01:30:56;95578.72;;;16.61;100.00
10796;BME280;5450;42.994;23.372;2022-11-20T01:33:26;95481.50;;;16.19;100.00
10796;BME280;5450;42.994;23.372;2022-11-20T01:36:05;95530.91;;;16.32;100.00
10796;BME280;5450;42.994;23.372;2022-11-20T01:38:34;95577.47;;;16.82;100.00
10796;BME280;5450;42.994;23.372;2022-11-20T01:41:00;95463.16;;;16.18;100.00
10796;BME280;5450;42.994;23.372;2022-11-20T01:43:28;95508.81;;;16.38;100.00
10796;BME280;5450;42.994;23.372;2022-11-20T01:46:03;95524.34;;;16.52;100.00
10796;BME280;5450;42.994;23.372;2022-11-20T01:48:36;95565.53;;;17.03;100.00
10796;BME280;5450;42.994;23.372;2022-11-20T01:51:12;95490.69;;;16.53;100.00
10796;BME280;5450;42.994;23.372;2022-11-20T01:53:42;95541.75;;;16.66;100.00
10796;BME280;5450;42.994;23.372;2022-11-20T01:56:12;95524.06;;;16.60;100.00
10796;BME280;5450;42.994;23.372;2022-11-20T01:58:43;95541.81;;;16.60;100.00
10796;BME280;5450;42.994;23.372;2022-11-20T02:01:12;95560.72;;;16.82;100.00
10796;BME280;5450;42.994;23.372;2022-11-20T02:03:41;95572.59;;;16.79;100.00
10796;BME280;5450;42.994;23.372;2022-11-20T02:06:14;95465.75;;;16.06;100.00
10796;BME280;5450;42.994;23.372;2022-11-20T02:08:44;95554.25;;;16.78;100.00
10796;BME280;5450;42.994;23.372;2022-11-20T02:11:11;95548.94;;;16.78;100.00
10796;BME280;5450;42.994;23.372;2022-11-20T02:13:39;95536.28;;;16.61;100.00
10796;BME280;5450;42.994;23.372;2022-11-20T02:16:11;95539.06;;;16.85;100.00
10796;BME280;5450;42.994;23.372;2022-11-20T02:18:39;95409.38;;;15.99;100.00
10796;BME280;5450;42.994;23.372;2022-11-20T02:21:13;95432.16;;;16.18;100.00
10796;BME280;5450;42.994;23.372;2022-11-20T02:23:58;95568.38;;;16.90;100.00
10796;BME280;5450;42.994;23.372;2022-11-20T02:26:27;95484.88;;;16.44;100.00
10796;BME280;5450;42.994;23.372;2022-11-20T02:28:55;95540.56;;;16.92;100.00
10796;BME280;5450;42.994;23.372;2022-11-20T02:31:23;95537.78;;;16.87;100.00
10796;BME280;5450;42.994;23.372;2022-11-20T02:33:54;95416.84;;;16.20;100.00
10796;BME280;5450;42.994;23.372;2022-11-20T02:36:22;95418.88;;;16.07;100.00
10796;BME280;5450;42.994;23.372;2022-11-20T02:38:52;95401.69;;;16.09;100.00
10796;BME280;5450;42.994;23.372;2022-11-20T02:41:21;95537.56;;;17.18;100.00
10796;BME280;5450;42.994;23.372;2022-11-20T02:43:50;95470.28;;;16.72;100.00
10796;BME280;5450;42.994;23.372;2022-11-20T02:46:17;95568.28;;;17.26;100.00
10796;BME280;5450;42.994;23.372;2022-11-20T02:48:44;95564.94;;;17.30;100.00
10796;BME280;5450;42.994;23.372;2022-11-20T02:51:11;95466.38;;;16.86;100.00
10796;BME280;5450;42.994;23.372;2022-11-20T02:53:37;95434.59;;;16.67;100.00
10796;BME280;5450;42.994;23.372;2022-11-20T02:56:07;95478.25;;;16.83;100.00
10796;BME280;5450;42.994;23.372;2022-11-20T02:58:34;95491.81;;;17.05;100.00
10796;BME280;5450;42.994;23.372;2022-11-20T03:01:01;95520.84;;;17.29;100.00
10796;BME280;5450;42.994;23.372;2022-11-20T03:03:28;95452.28;;;16.74;100.00
10796;BME280;5450;42.994;23.372;2022-11-20T03:05:58;95565.66;;;17.37;100.00
10796;BME280;5450;42.994;23.372;2022-11-20T03:08:25;95594.19;;;17.42;100.00
10796;BME280;5450;42.994;23.372;2022-11-20T03:10:52;95537.75;;;16.57;100.00
10796;BME280;5450;42.994;23.372;2022-11-20T03:13:21;95593.91;;;16.73;100.00
10796;BME280;5450;42.994;23.372;2022-11-20T03:15:48;95569.00;;;16.74;100.00
10796;BME280;5450;42.994;23.372;2022-11-20T03:18:16;95596.38;;;16.67;100.00
10796;BME280;5450;42.994;23.372;2022-11-20T03:20:44;95577.06;;;16.42;100.00
10796;BME280;5450;42.994;23.372;2022-11-20T03:23:11;95591.69;;;16.51;100.00
10796;BME280;5450;42.994;23.372;2022-11-20T03:25:38;95489.81;;;15.44;100.00
10796;BME280;5450;42.994;23.372;2022-11-20T03:28:05;95580.84;;;15.92;100.00
10796;BME280;5450;42.994;23.372;2022-11-20T03:30:35;95574.94;;;16.15;100.00
10796;BME280;5450;42.994;23.372;2022-11-20T03:33:02;95549.34;;;15.84;100.00
10796;BME280;5450;42.994;23.372;2022-11-20T03:35:29;95499.59;;;15.68;100.00
10796;BME280;5450;42.994;23.372;2022-11-20T03:37:57;95482.38;;;15.77;100.00
10796;BME280;5450;42.994;23.372;2022-11-20T03:40:24;95548.44;;;16.51;100.00
10796;BME280;5450;42.994;23.372;2022-11-20T03:42:51;95462.81;;;15.78;100.00
10796;BME280;5450;42.994;23.372;2022-11-20T03:45:18;95601.53;;;16.81;100.00
10796;BME280;5450;42.994;23.372;2022-11-20T03:47:47;95565.47;;;16.61;100.00
10796;BME280;5450;42.994;23.372;2022-11-20T03:50:14;95541.59;;;16.61;100.00
10796;BME280;5450;42.994;23.372;2022-11-20T03:52:41;95577.38;;;16.89;100.00
10796;BME280;5450;42.994;23.372;2022-11-20T03:55:08;95529.97;;;16.62;100.00
10796;BME280;5450;42.994;23.372;2022-11-20T03:57:35;95565.50;;;16.91;100.00
10796;BME280;5450;42.994;23.372;2022-11-20T04:00:03;95457.59;;;16.08;100.00
10796;BME280;5450;42.994;23.372;2022-11-20T04:02:31;95541.00;;;16.59;100.00
10796;BME280;5450;42.994;23.372;2022-11-20T04:05:00;95534.72;;;16.72;100.00
10796;BME280;5450;42.994;23.372;2022-11-20T04:07:27;95569.34;;;16.95;100.00
10796;BME280;5450;42.994;23.372;2022-11-20T04:09:54;95499.91;;;16.50;100.00
10796;BME280;5450;42.994;23.372;2022-11-20T04:12:24;95479.56;;;16.44;100.00
10796;BME280;5450;42.994;23.372;2022-11-20T04:14:52;95540.34;;;16.94;100.00
10796;BME280;5450;42.994;23.372;2022-11-20T04:17:20;95534.38;;;16.98;100.00
10796;BME280;5450;42.994;23.372;2022-11-20T04:19:47;95521.75;;;16.82;100.00
10796;BME280;5450;42.994;23.372;2022-11-20T04:22:15;95463.06;;;16.60;100.00
10796;BME280;5450;42.994;23.372;2022-11-20T04:24:42;95542.47;;;17.03;100.00
10796;BME280;5450;42.994;23.372;2022-11-20T04:27:09;95514.53;;;17.01;100.00
10796;BME280;5450;42.994;23.372;2022-11-20T04:29:36;95437.13;;;16.44;100.00
10796;BME280;5450;42.994;23.372;2022-11-20T04:32:03;95494.78;;;16.97;100.00
10796;BME280;5450;42.994;23.372;2022-11-20T04:34:32;95457.38;;;16.57;100.00
10796;BME280;5450;42.994;23.372;2022-11-20T04:36:59;95516.06;;;16.79;100.00
10796;BME280;5450;42.994;23.372;2022-11-20T04:39:31;95444.41;;;16.19;100.00
10796;BME280;5450;42.994;23.372;2022-11-20T04:41:58;95537.88;;;16.81;100.00
10796;BME280;5450;42.994;23.372;2022-11-20T04:44:39;95555.25;;;16.95;100.00
10796;BME280;5450;42.994;23.372;2022-11-20T04:47:06;95555.09;;;16.90;100.00
10796;BME280;5450;42.994;23.372;2022-11-20T04:49:33;95566.34;;;17.03;100.00
10796;BME280;5450;42.994;23.372;2022-11-20T04:52:00;95476.53;;;16.59;100.00
10796;BME280;5450;42.994;23.372;2022-11-20T04:54:27;95525.56;;;16.86;100.00
10796;BME280;5450;42.994;23.372;2022-11-20T04:56:56;95511.66;;;16.73;100.00
10796;BME280;5450;42.994;23.372;2022-11-20T04:59:23;95553.25;;;16.90;100.00
10796;BME280;5450;42.994;23.372;2022-11-20T05:01:50;95551.19;;;17.22;100.00
10796;BME280;5450;42.994;23.372;2022-11-20T05:04:17;95551.41;;;17.20;100.00
10796;BME280;5450;42.994;23.372;2022-11-20T05:06:45;95561.00;;;17.21;100.00
10796;BME280;5450;42.994;23.372;2022-11-20T05:09:12;95435.72;;;16.30;100.00
10796;BME280;5450;42.994;23.372;2022-11-20T05:12:08;95553.53;;;17.30;100.00
10796;BME280;5450;42.994;23.372;2022-11-20T05:14:36;95540.00;;;17.31;100.00
10796;BME280;5450;42.994;23.372;2022-11-20T05:17:04;95550.63;;;17.31;100.00
10796;BME280;5450;42.994;23.372;2022-11-20T05:19:32;95542.91;;;17.30;100.00
10796;BME280;5450;42.994;23.372;2022-11-20T05:22:00;95483.94;;;16.87;99.77
10796;BME280;5450;42.994;23.372;2022-11-20T05:24:27;95544.06;;;17.34;100.00
10796;BME280;5450;42.994;23.372;2022-11-20T05:26:56;95458.47;;;16.67;100.00
10796;BME280;5450;42.994;23.372;2022-11-20T05:29:24;95463.31;;;16.71;100.00
10796;BME280;5450;42.994;23.372;2022-11-20T05:31:51;95570.84;;;17.32;100.00
10796;BME280;5450;42.994;23.372;2022-11-20T05:34:18;95463.31;;;16.71;100.00
10796;BME280;5450;42.994;23.372;2022-11-20T05:36:45;95561.03;;;17.33;100.00
10796;BME280;5450;42.994;23.372;2022-11-20T05:39:12;95538.31;;;17.07;100.00
10796;BME280;5450;42.994;23.372;2022-11-20T05:41:39;95553.34;;;17.43;99.35
10796;BME280;5450;42.994;23.372;2022-11-20T05:44:06;95516.59;;;16.99;100.00
10796;BME280;5450;42.994;23.372;2022-11-20T05:46:34;95557.69;;;17.26;99.24
10796;BME280;5450;42.994;23.372;2022-11-20T05:49:01;95581.34;;;17.39;99.81
10796;BME280;5450;42.994;23.372;2022-11-20T05:51:30;95600.06;;;17.44;100.00
10796;BME280;5450;42.994;23.372;2022-11-20T05:53:57;95587.72;;;17.38;99.25
10796;BME280;5450;42.994;23.372;2022-11-20T05:56:24;95559.22;;;17.15;100.00
10796;BME280;5450;42.994;23.372;2022-11-20T05:58:51;95619.84;;;17.48;99.92
10796;BME280;5450;42.994;23.372;2022-11-20T06:01:20;95625.34;;;17.35;100.00
10796;BME280;5450;42.994;23.372;2022-11-20T06:03:49;95498.13;;;16.62;100.00
10796;BME280;5450;42.994;23.372;2022-11-20T06:06:16;95528.53;;;16.78;100.00
10796;BME280;5450;42.994;23.372;2022-11-20T06:08:44;95533.78;;;16.66;100.00
10796;BME280;5450;42.994;23.372;2022-11-20T06:11:12;95602.91;;;17.19;100.00
10796;BME280;5450;42.994;23.372;2022-11-20T06:13:40;95571.59;;;16.92;100.00
10796;BME280;5450;42.994;23.372;2022-11-20T06:16:07;95531.72;;;16.50;100.00
10796;BME280;5450;42.994;23.372;2022-11-20T06:18:35;95538.94;;;16.61;100.00
10796;BME280;5450;42.994;23.372;2022-11-20T06:21:05;95577.28;;;16.95;100.00
10796;BME280;5450;42.994;23.372;2022-11-20T06:23:35;95580.16;;;16.94;100.00
10796;BME280;5450;42.994;23.372;2022-11-20T06:26:04;95568.34;;;16.78;100.00
10796;BME280;5450;42.994;23.372;2022-11-20T06:28:31;95548.84;;;16.54;100.00
10796;BME280;5450;42.994;23.372;2022-11-20T06:30:58;95597.88;;;16.82;100.00
10796;BME280;5450;42.994;23.372;2022-11-20T06:33:26;95589.69;;;16.83;100.00
10796;BME280;5450;42.994;23.372;2022-11-20T06:35:56;95677.28;;;17.31;100.00
10796;BME280;5450;42.994;23.372;2022-11-20T06:38:24;95661.13;;;16.85;100.00
10796;BME280;5450;42.994;23.372;2022-11-20T06:40:52;95611.28;;;16.08;100.00
10796;BME280;5450;42.994;23.372;2022-11-20T06:43:19;95658.75;;;16.09;100.00
10796;BME280;5450;42.994;23.372;2022-11-20T06:45:46;95563.91;;;14.30;100.00
10796;BME280;5450;42.994;23.372;2022-11-20T06:48:13;95738.91;;;14.46;100.00
10796;BME280;5450;42.994;23.372;2022-11-20T06:50:40;95761.75;;;13.66;100.00
10796;BME280;5450;42.994;23.372;2022-11-20T06:53:07;95732.78;;;13.19;100.00
10796;BME280;5450;42.994;23.372;2022-11-20T06:55:35;95729.72;;;12.75;100.00
10796;BME280;5450;42.994;23.372;2022-11-20T06:58:02;95663.44;;;12.09;100.00
10796;BME280;5450;42.994;23.372;2022-11-20T07:00:30;95787.31;;;12.78;100.00
10796;BME280;5450;42.994;23.372;2022-11-20T07:03:07;95790.63;;;12.59;100.00
10796;BME280;5450;42.994;23.372;2022-11-20T07:05:38;95798.16;;;12.62;100.00
10796;BME280;5450;42.994;23.372;2022-11-20T07:08:06;95750.81;;;12.19;100.00
10796;BME280;5450;42.994;23.372;2022-11-20T07:10:37;95817.28;;;12.43;100.00
10796;BME280;5450;42.994;23.372;2022-11-20T07:13:05;95805.75;;;12.23;100.00
10796;BME280;5450;42.994;23.372;2022-11-20T07:15:32;95708.06;;;11.69;100.00
10796;BME280;5450;42.994;23.372;2022-11-20T07:17:59;95772.50;;;12.22;100.00
10796;BME280;5450;42.994;23.372;2022-11-20T07:20:27;95707.06;;;11.34;100.00
10796;BME280;5450;42.994;23.372;2022-11-20T07:22:54;95712.22;;;11.42;100.00
10796;BME280;5450;42.994;23.372;2022-11-20T07:25:22;95804.63;;;12.10;100.00
10796;BME280;5450;42.994;23.372;2022-11-20T07:27:51;95755.00;;;11.51;100.00
10796;BME280;5450;42.994;23.372;2022-11-20T07:30:18;95819.41;;;11.90;100.00
10796;BME280;5450;42.994;23.372;2022-11-20T07:32:46;95818.59;;;11.90;100.00
10796;BME280;5450;42.994;23.372;2022-11-20T07:35:14;95801.84;;;11.76;100.00
10796;BME280;5450;42.994;23.372;2022-11-20T07:37:41;95740.25;;;11.35;100.00
10796;BME280;5450;42.994;23.372;2022-11-20T07:40:09;95831.75;;;11.69;100.00
10796;BME280;5450;42.994;23.372;2022-11-20T07:42:36;95812.44;;;11.47;100.00
10796;BME280;5450;42.994;23.372;2022-11-20T07:45:06;95835.00;;;11.71;100.00
10796;BME280;5450;42.994;23.372;2022-11-20T07:47:35;95832.25;;;11.64;100.00
10796;BME280;5450;42.994;23.372;2022-11-20T07:50:05;95847.78;;;11.59;100.00
10796;BME280;5450;42.994;23.372;2022-11-20T07:52:39;95822.13;;;11.47;100.00
10796;BME280;5450;42.994;23.372;2022-11-20T07:55:09;95808.13;;;11.25;100.00
10796;BME280;5450;42.994;23.372;2022-11-20T07:57:38;95812.03;;;11.14;100.00
10796;BME280;5450;42.994;23.372;2022-11-20T08:00:09;95854.72;;;11.31;100.00
10796;BME280;5450;42.994;23.372;2022-11-20T08:02:37;95837.56;;;11.35;100.00
10796;BME280;5450;42.994;23.372;2022-11-20T08:05:05;95797.41;;;10.68;100.00
10796;BME280;5450;42.994;23.372;2022-11-20T08:07:36;95727.47;;;10.23;100.00
10796;BME280;5450;42.994;23.372;2022-11-20T08:10:06;95864.63;;;11.14;100.00
10796;BME280;5450;42.994;23.372;2022-11-20T08:12:34;95803.72;;;10.44;100.00
10796;BME280;5450;42.994;23.372;2022-11-20T08:15:20;95755.16;;;10.11;100.00
10796;BME280;5450;42.994;23.372;2022-11-20T08:17:49;95753.34;;;9.89;100.00
10796;BME280;5450;42.994;23.372;2022-11-20T08:20:16;95844.56;;;10.70;100.00
10796;BME280;5450;42.994;23.372;2022-11-20T08:22:43;95833.66;;;10.73;100.00
10796;BME280;5450;42.994;23.372;2022-11-20T08:25:16;95824.72;;;10.67;100.00
10796;BME280;5450;42.994;23.372;2022-11-20T08:27:45;95725.75;;;9.93;100.00
10796;BME280;5450;42.994;23.372;2022-11-20T08:30:49;95837.75;;;10.75;100.00
10796;BME280;5450;42.994;23.372;2022-11-20T08:33:21;95841.19;;;10.61;100.00
10796;BME280;5450;42.994;23.372;2022-11-20T08:35:53;95828.81;;;10.32;100.00
10796;BME280;5450;42.994;23.372;2022-11-20T08:38:26;95773.41;;;9.82;100.00
10796;BME280;5450;42.994;23.372;2022-11-20T08:40:57;95850.53;;;10.26;100.00
10796;BME280;5450;42.994;23.372;2022-11-20T08:43:42;95845.41;;;10.02;100.00
10796;BME280;5450;42.994;23.372;2022-11-20T08:46:14;95844.25;;;10.05;100.00
10796;BME280;5450;42.994;23.372;2022-11-20T08:48:44;95795.31;;;9.89;100.00
10796;BME280;5450;42.994;23.372;2022-11-20T08:51:12;95858.81;;;10.07;100.00
10796;BME280;5450;42.994;23.372;2022-11-20T08:53:40;95867.56;;;10.00;100.00
10796;BME280;5450;42.994;23.372;2022-11-20T08:56:41;95873.72;;;10.15;100.00
10796;BME280;5450;42.994;23.372;2022-11-20T08:59:10;95882.44;;;10.15;100.00
10796;BME280;5450;42.994;23.372;2022-11-20T09:01:38;95864.53;;;9.88;100.00
10796;BME280;5450;42.994;23.372;2022-11-20T09:04:06;95880.44;;;10.17;100.00
10796;BME280;5450;42.994;23.372;2022-11-20T09:06:33;95755.22;;;9.27;100.00
10796;BME280;5450;42.994;23.372;2022-11-20T09:09:00;95814.81;;;9.64;100.00
10796;BME280;5450;42.994;23.372;2022-11-20T09:11:27;95874.38;;;10.17;100.00
10796;BME280;5450;42.994;23.372;2022-11-20T09:13:56;95879.75;;;10.23;100.00
10796;BME280;5450;42.994;23.372;2022-11-20T09:16:23;95898.06;;;10.31;100.00
10796;BME280;5450;42.994;23.372;2022-11-20T09:18:55;95808.66;;;9.57;100.00
10796;BME280;5450;42.994;23.372;2022-11-20T09:21:28;95878.47;;;10.19;100.00
10796;BME280;5450;42.994;23.372;2022-11-20T09:23:55;95823.25;;;9.82;100.00
10796;BME280;5450;42.994;23.372;2022-11-20T09:26:25;95894.56;;;10.39;100.00
10796;BME280;5450;42.994;23.372;2022-11-20T09:28:52;95886.84;;;10.37;100.00
10796;BME280;5450;42.994;23.372;2022-11-20T09:31:22;95786.16;;;9.62;100.00
10796;BME280;5450;42.994;23.372;2022-11-20T09:33:51;95712.44;;;9.35;100.00
10796;BME280;5450;42.994;23.372;2022-11-20T09:36:21;95739.22;;;9.45;100.00
10796;BME280;5450;42.994;23.372;2022-11-20T09:38:48;95830.50;;;10.25;100.00
10796;BME280;5450;42.994;23.372;2022-11-20T09:41:34;95863.47;;;10.65;100.00
10796;BME280;5450;42.994;23.372;2022-11-20T09:44:10;95862.22;;;10.76;100.00
10796;BME280;5450;42.994;23.372;2022-11-20T09:46:50;95864.53;;;10.56;100.00
10796;BME280;5450;42.994;23.372;2022-11-20T09:49:30;95792.22;;;10.08;100.00
10796;BME280;5450;42.994;23.372;2022-11-20T09:52:13;95845.09;;;10.65;100.00
10796;BME280;5450;42.994;23.372;2022-11-20T09:54:44;95845.00;;;10.58;100.00
10796;BME280;5450;42.994;23.372;2022-11-20T09:57:12;95843.16;;;10.59;100.00
10796;BME280;5450;42.994;23.372;2022-11-20T09:59:42;95807.97;;;10.31;100.00
10796;BME280;5450;42.994;23.372;2022-11-20T10:02:22;95764.94;;;10.17;100.00
10796;BME280;5450;42.994;23.372;2022-11-20T10:04:57;95760.25;;;10.27;100.00
10796;BME280;5450;42.994;23.372;2022-11-20T10:07:30;95784.81;;;10.49;100.00
10796;BME280;5450;42.994;23.372;2022-11-20T10:09:59;95756.97;;;10.25;100.00
10796;BME280;5450;42.994;23.372;2022-11-20T10:12:36;95791.81;;;10.56;100.00
10796;BME280;5450;42.994;23.372;2022-11-20T10:15:24;95718.63;;;10.02;100.00
10796;BME280;5450;42.994;23.372;2022-11-20T10:18:08;95770.94;;;10.40;100.00
10796;BME280;5450;42.994;23.372;2022-11-20T10:20:46;95710.47;;;9.97;100.00
10796;BME280;5450;42.994;23.372;2022-11-20T10:23:32;95786.38;;;10.43;100.00
10796;BME280;5450;42.994;23.372;2022-11-20T10:26:16;95751.50;;;10.49;100.00
10796;BME280;5450;42.994;23.372;2022-11-20T10:28:54;95701.75;;;10.33;100.00
10796;BME280;5450;42.994;23.372;2022-11-20T10:31:30;95771.69;;;10.93;100.00
10796;BME280;5450;42.994;23.372;2022-11-20T10:34:02;95794.59;;;11.13;100.00
10796;BME280;5450;42.994;23.372;2022-11-20T10:36:35;95714.41;;;11.03;100.00
10796;BME280;5450;42.994;23.372;2022-11-20T10:39:14;95775.47;;;11.34;100.00
10796;BME280;5450;42.994;23.372;2022-11-20T10:41:49;95700.47;;;10.88;100.00
10796;BME280;5450;42.994;23.372;2022-11-20T10:44:27;95722.34;;;11.09;100.00
10796;BME280;5450;42.994;23.372;2022-11-20T10:47:14;95755.00;;;11.15;100.00
10796;BME280;5450;42.994;23.372;2022-11-20T10:49:42;95755.16;;;11.28;100.00
10796;BME280;5450;42.994;23.372;2022-11-20T10:52:16;95656.91;;;10.64;100.00
10796;BME280;5450;42.994;23.372;2022-11-20T10:54:53;95756.78;;;11.29;100.00
10796;BME280;5450;42.994;23.372;2022-11-20T10:57:39;95680.84;;;11.05;100.00
10796;BME280;5450;42.994;23.372;2022-11-20T11:00:11;95733.50;;;11.47;100.00
10796;BME280;5450;42.994;23.372;2022-11-20T11:02:47;95742.66;;;11.51;100.00
10796;BME280;5450;42.994;23.372;2022-11-20T11:05:22;95704.94;;;11.44;100.00
10796;BME280;5450;42.994;23.372;2022-11-20T11:07:54;95741.59;;;11.46;100.00
10796;BME280;5450;42.994;23.372;2022-11-20T11:10:25;95727.28;;;11.33;100.00
10796;BME280;5450;42.994;23.372;2022-11-20T11:12:55;95716.19;;;11.17;100.00
10796;BME280;5450;42.994;23.372;2022-11-20T11:15:27;95719.88;;;11.22;100.00
10796;BME280;5450;42.994;23.372;2022-11-20T11:17:55;95702.59;;;11.13;100.00
10796;BME280;5450;42.994;23.372;2022-11-20T11:20:23;95700.41;;;11.17;100.00
10796;BME280;5450;42.994;23.372;2022-11-20T11:22:53;95719.97;;;11.29;100.00
10796;BME280;5450;42.994;23.372;2022-11-20T11:25:27;95653.09;;;10.81;100.00
10796;BME280;5450;42.994;23.372;2022-11-20T11:27:56;95701.41;;;11.16;100.00
10796;BME280;5450;42.994;23.372;2022-11-20T11:30:27;95738.28;;;11.22;100.00
10796;BME280;5450;42.994;23.372;2022-11-20T11:33:08;95704.47;;;10.84;100.00
10796;BME280;5450;42.994;23.372;2022-11-20T11:35:44;95647.41;;;10.48;100.00
10796;BME280;5450;42.994;23.372;2022-11-20T11:38:16;95748.19;;;11.20;100.00
10796;BME280;5450;42.994;23.372;2022-11-20T11:40:46;95763.13;;;11.34;100.00
10796;BME280;5450;42.994;23.372;2022-11-20T11:43:29;95702.63;;;10.99;100.00
10796;BME280;5450;42.994;23.372;2022-11-20T11:46:27;95727.81;;;11.08;100.00
10796;BME280;5450;42.994;23.372;2022-11-20T11:48:57;95722.81;;;10.98;100.00
10796;BME280;5450;42.994;23.372;2022-11-20T11:51:27;95725.72;;;11.03;100.00
10796;BME280;5450;42.994;23.372;2022-11-20T11:53:58;95612.47;;;10.33;100.00
10796;BME280;5450;42.994;23.372;2022-11-20T11:56:29;95726.72;;;11.02;100.00
10796;BME280;5450;42.994;23.372;2022-11-20T11:59:06;95756.47;;;11.17;100.00
10796;BME280;5450;42.994;23.372;2022-11-20T12:01:43;95735.41;;;11.17;100.00
10796;BME280;5450;42.994;23.372;2022-11-20T12:04:19;95707.75;;;11.07;100.00
10796;BME280;5450;42.994;23.372;2022-11-20T12:06:51;95715.66;;;11.07;100.00
10796;BME280;5450;42.994;23.372;2022-11-20T12:09:24;95736.47;;;11.23;100.00
10796;BME280;5450;42.994;23.372;2022-11-20T12:11:58;95739.81;;;10.96;100.00
10796;BME280;5450;42.994;23.372;2022-11-20T12:14:34;95744.78;;;10.91;100.00
10796;BME280;5450;42.994;23.372;2022-11-20T12:17:04;95660.53;;;10.05;100.00
10796;BME280;5450;42.994;23.372;2022-11-20T12:19:34;95737.72;;;10.77;100.00
10796;BME280;5450;42.994;23.372;2022-11-20T12:22:07;95787.44;;;11.22;100.00
10796;BME280;5450;42.994;23.372;2022-11-20T12:24:51;95749.41;;;10.89;100.00
10796;BME280;5450;42.994;23.372;2022-11-20T12:27:51;95808.00;;;11.48;100.00
10796;BME280;5450;42.994;23.372;2022-11-20T12:30:22;95823.22;;;11.67;100.00
10796;BME280;5450;42.994;23.372;2022-11-20T12:33:24;95818.94;;;11.51;100.00
10796;BME280;5450;42.994;23.372;2022-11-20T12:36:17;95675.41;;;10.56;100.00
10796;BME280;5450;42.994;23.372;2022-11-20T12:41:49;95793.97;;;11.26;100.00
10796;BME280;5450;42.994;23.372;2022-11-20T12:45:01;95812.31;;;11.55;100.00
10796;BME280;5450;42.994;23.372;2022-11-20T12:48:24;95727.19;;;11.06;100.00
10796;BME280;5450;42.994;23.372;2022-11-20T12:53:56;95778.72;;;11.36;100.00
10796;BME280;5450;42.994;23.372;2022-11-20T12:56:32;95753.41;;;11.35;100.00
10796;BME280;5450;42.994;23.372;2022-11-20T12:59:19;95820.91;;;11.78;100.00
10796;BME280;5450;42.994;23.372;2022-11-20T13:01:55;95680.19;;;10.82;100.00
10796;BME280;5450;42.994;23.372;2022-11-20T13:04:36;95792.50;;;11.74;100.00
10796;BME280;5450;42.994;23.372;2022-11-20T13:07:14;95799.47;;;11.81;100.00
10796;BME280;5450;42.994;23.372;2022-11-20T13:09:45;95813.06;;;11.85;100.00
10796;BME280;5450;42.994;23.372;2022-11-20T13:12:17;95677.22;;;11.06;100.00
10796;BME280;5450;42.994;23.372;2022-11-20T13:14:55;95750.97;;;11.69;100.00
10796;BME280;5450;42.994;23.372;2022-11-20T13:17:38;95782.44;;;11.77;100.00